Time;durP1;ratioP1;P1;durP2;ratioP2;P2;SDS_P1;SDS_P2;PMS_P1;PMS_P2;Temp;Humidity;BMP_temperature;BMP_pressure;BME280_temperature;BME280_humidity;BME280_pressure;Samples;Min_cycle;Max_cycle;Signal;HPM_P1;HPM_P2
2020/12/07 00:02:19;;;;;;;31.07;19.73;;;4.70;99.90;;;;;;4990294;28;20220;-44
2020/12/07 00:04:45;;;;;;;33.90;19.33;;;4.70;99.90;;;;;;5001498;28;20242;-44
2020/12/07 00:07:10;;;;;;;31.90;20.20;;;4.80;99.90;;;;;;4998139;28;20652;-45
2020/12/07 00:09:36;;;;;;;32.63;19.83;;;4.80;99.90;;;;;;4997583;28;20267;-47
2020/12/07 00:12:01;;;;;;;30.47;18.63;;;4.90;99.90;;;;;;4996039;28;20213;-45
2020/12/07 00:14:26;;;;;;;33.83;19.50;;;4.90;99.90;;;;;;5000888;28;20961;-46
2020/12/07 00:16:52;;;;;;;33.57;18.93;;;4.90;99.90;;;;;;4989370;28;20216;-44
2020/12/07 00:19:17;;;;;;;33.13;18.07;;;5.00;99.90;;;;;;4993489;28;20193;-46
2020/12/07 00:21:43;;;;;;;32.80;20.23;;;5.00;99.90;;;;;;4999294;28;20200;-46
2020/12/07 00:24:09;;;;;;;32.10;19.73;;;5.00;99.90;;;;;;5005645;28;20238;-46
2020/12/07 00:26:34;;;;;;;31.97;20.37;;;5.10;99.90;;;;;;4990652;28;20189;-44
2020/12/07 00:29:00;;;;;;;33.97;19.07;;;5.10;99.90;;;;;;5000446;28;20661;-44
2020/12/07 00:31:26;;;;;;;34.57;19.43;;;5.10;99.90;;;;;;5007756;28;20199;-47
2020/12/07 00:33:57;;;;;;;32.13;19.47;;;5.10;99.90;;;;;;4984014;28;20272;-45
2020/12/07 00:36:23;;;;;;;31.93;18.57;;;5.10;99.90;;;;;;5011901;28;20215;-46
2020/12/07 00:38:49;;;;;;;31.20;18.37;;;5.10;99.90;;;;;;5012290;28;20216;-46
2020/12/07 00:41:19;;;;;;;31.53;18.77;;;5.10;99.90;;;;;;4988179;28;20205;-45
2020/12/07 00:43:44;;;;;;;32.70;18.50;;;5.20;99.90;;;;;;4990519;28;20208;-44
2020/12/07 00:46:10;;;;;;;31.50;18.60;;;5.20;99.90;;;;;;5003588;28;20185;-44
2020/12/07 00:48:35;;;;;;;31.17;18.97;;;5.20;99.90;;;;;;4972135;28;20632;-45
2020/12/07 00:51:01;;;;;;;31.90;18.97;;;5.20;99.90;;;;;;4995497;28;20204;-46
2020/12/07 00:53:26;;;;;;;29.63;18.87;;;5.20;99.90;;;;;;5007842;28;20211;-44
2020/12/07 00:55:52;;;;;;;31.13;18.20;;;5.20;99.90;;;;;;4981904;28;20192;-48
2020/12/07 00:58:17;;;;;;;34.73;19.87;;;5.20;99.90;;;;;;4994167;28;20221;-48
2020/12/07 01:00:42;;;;;;;30.63;18.40;;;5.20;99.90;;;;;;5004692;28;20197;-47
2020/12/07 01:03:08;;;;;;;28.60;17.27;;;5.20;99.90;;;;;;4985468;28;20336;-53
2020/12/07 01:05:33;;;;;;;30.67;17.67;;;5.30;99.90;;;;;;5004671;28;20196;-49
2020/12/07 01:07:59;;;;;;;27.33;17.00;;;5.20;99.90;;;;;;5001011;28;20200;-44
2020/12/07 01:10:24;;;;;;;26.73;16.80;;;5.20;99.90;;;;;;4988224;28;20224;-48
2020/12/07 01:12:50;;;;;;;31.80;17.50;;;5.30;99.90;;;;;;4997165;28;20696;-47
2020/12/07 01:15:15;;;;;;;28.80;17.40;;;5.30;99.90;;;;;;4992554;28;20228;-45
2020/12/07 01:17:41;;;;;;;29.30;17.97;;;5.20;99.90;;;;;;5010658;28;20181;-46
2020/12/07 01:20:06;;;;;;;27.73;16.13;;;5.20;99.90;;;;;;4990387;28;20262;-49
2020/12/07 01:22:32;;;;;;;28.93;17.63;;;5.20;99.90;;;;;;5013330;28;20208;-46
2020/12/07 01:24:58;;;;;;;26.20;17.33;;;5.20;99.90;;;;;;5007525;28;20546;-44
2020/12/07 01:27:24;;;;;;;28.50;16.30;;;5.20;99.90;;;;;;4986862;28;20242;-49
2020/12/07 01:29:49;;;;;;;23.73;16.13;;;5.20;99.90;;;;;;4997378;28;20336;-42
2020/12/07 01:32:15;;;;;;;26.43;16.87;;;5.10;99.90;;;;;;5000583;28;20868;-45
2020/12/07 01:34:40;;;;;;;29.93;16.80;;;5.10;99.90;;;;;;4996174;28;20215;-47
2020/12/07 01:37:06;;;;;;;28.67;18.47;;;5.10;99.90;;;;;;4987760;28;20192;-48
2020/12/07 01:39:31;;;;;;;30.10;17.57;;;5.20;99.90;;;;;;4998619;28;20197;-45
2020/12/07 01:41:57;;;;;;;28.00;17.20;;;5.20;99.90;;;;;;4987441;28;20208;-42
2020/12/07 01:44:22;;;;;;;29.10;17.57;;;5.20;99.90;;;;;;4985678;28;20196;-49
2020/12/07 01:46:48;;;;;;;27.90;17.70;;;5.30;99.90;;;;;;5002368;28;20176;-43
2020/12/07 01:49:14;;;;;;;29.87;18.13;;;5.30;99.90;;;;;;5002508;28;20350;-46
2020/12/07 01:51:39;;;;;;;29.70;18.40;;;5.30;99.90;;;;;;4999274;28;20271;-48
2020/12/07 01:54:05;;;;;;;28.60;18.23;;;5.40;99.90;;;;;;5012613;28;20255;-44
2020/12/07 01:56:30;;;;;;;30.70;17.70;;;5.40;99.90;;;;;;5013142;28;20555;-48
2020/12/07 01:58:57;;;;;;;30.57;17.77;;;5.40;99.90;;;;;;4984389;28;20195;-42
2020/12/07 02:01:22;;;;;;;27.40;17.63;;;5.40;99.90;;;;;;4994478;28;20753;-49
2020/12/07 02:03:48;;;;;;;25.40;17.73;;;5.40;99.90;;;;;;5009626;28;20216;-45
2020/12/07 02:06:13;;;;;;;29.60;17.50;;;5.50;99.90;;;;;;4982597;28;20282;-47
2020/12/07 02:08:39;;;;;;;25.97;16.90;;;5.50;99.90;;;;;;5009019;28;20231;-51
2020/12/07 02:11:04;;;;;;;29.30;17.40;;;5.50;99.90;;;;;;4996502;28;20180;-46
2020/12/07 02:13:30;;;;;;;30.27;17.70;;;5.60;99.90;;;;;;4986497;28;20204;-41
2020/12/07 02:15:56;;;;;;;25.77;16.67;;;5.60;99.90;;;;;;4997914;28;20180;-47
2020/12/07 02:18:22;;;;;;;30.83;15.60;;;5.60;99.90;;;;;;5005984;28;20185;-44
2020/12/07 02:20:48;;;;;;;26.13;16.63;;;5.60;99.90;;;;;;4999997;28;20180;-43
2020/12/07 02:23:15;;;;;;;27.90;17.07;;;5.60;99.90;;;;;;4996442;28;20214;-43
2020/12/07 02:25:40;;;;;;;25.80;16.80;;;5.60;99.90;;;;;;5001947;28;20181;-46
2020/12/07 02:28:06;;;;;;;23.40;16.40;;;5.60;99.90;;;;;;5005282;28;20472;-48
2020/12/07 02:30:31;;;;;;;29.37;17.30;;;5.70;99.90;;;;;;4990064;28;20423;-46
2020/12/07 02:32:57;;;;;;;25.80;17.53;;;5.70;99.90;;;;;;5000184;28;20672;-47
2020/12/07 02:35:22;;;;;;;26.60;16.83;;;5.80;99.90;;;;;;4996271;28;20188;-44
2020/12/07 02:37:48;;;;;;;26.23;16.57;;;5.90;99.90;;;;;;4993665;28;20187;-48
2020/12/07 02:40:14;;;;;;;27.77;17.30;;;5.90;99.90;;;;;;5008244;28;20196;-44
2020/12/07 02:42:41;;;;;;;29.17;16.70;;;6.00;99.90;;;;;;4992807;28;20208;-46
2020/12/07 02:45:09;;;;;;;25.93;15.63;;;6.00;99.90;;;;;;4999342;28;20192;-52
2020/12/07 02:47:35;;;;;;;25.37;17.07;;;6.00;99.90;;;;;;4999578;28;20247;-48
2020/12/07 02:50:01;;;;;;;26.53;15.97;;;6.10;99.90;;;;;;5002533;28;20208;-46
2020/12/07 02:52:27;;;;;;;21.80;15.07;;;6.20;99.90;;;;;;4990222;28;20667;-42
2020/12/07 02:54:54;;;;;;;24.20;15.93;;;6.20;99.90;;;;;;5005553;28;20279;-47
2020/12/07 02:57:20;;;;;;;26.10;16.37;;;6.20;99.90;;;;;;5005152;28;20187;-42
2020/12/07 02:59:46;;;;;;;22.37;15.43;;;6.30;99.90;;;;;;4995806;28;20288;-47
2020/12/07 03:02:12;;;;;;;21.50;15.07;;;6.40;99.90;;;;;;5000102;28;20725;-43
2020/12/07 03:04:37;;;;;;;22.27;15.43;;;6.40;99.90;;;;;;4994349;28;20200;-49
2020/12/07 03:07:03;;;;;;;25.87;15.47;;;6.40;99.90;;;;;;5007217;28;20188;-48
2020/12/07 03:09:28;;;;;;;21.20;15.60;;;6.50;99.90;;;;;;4991039;28;20275;-43
2020/12/07 03:11:54;;;;;;;21.83;15.27;;;6.50;99.90;;;;;;5012442;28;20197;-44
2020/12/07 03:14:19;;;;;;;23.80;15.33;;;6.50;99.90;;;;;;5001885;28;20610;-43
2020/12/07 03:16:45;;;;;;;19.17;14.63;;;6.50;99.90;;;;;;4992484;28;20184;-51
2020/12/07 03:19:11;;;;;;;23.60;14.80;;;6.50;99.90;;;;;;5002697;28;20188;-46
2020/12/07 03:21:37;;;;;;;20.07;14.10;;;6.50;99.90;;;;;;5002056;28;20734;-49
2020/12/07 03:24:05;;;;;;;20.27;13.43;;;6.60;99.90;;;;;;5011875;28;20212;-44
2020/12/07 03:26:34;;;;;;;17.57;13.30;;;6.60;99.90;;;;;;5003039;28;20195;-42
2020/12/07 03:29:02;;;;;;;18.90;14.17;;;6.60;99.90;;;;;;5014683;28;20212;-48
2020/12/07 03:31:31;;;;;;;23.40;14.63;;;6.70;99.90;;;;;;4996787;28;20642;-45
2020/12/07 03:33:58;;;;;;;17.60;12.67;;;6.70;99.90;;;;;;4995918;28;20193;-47
2020/12/07 03:36:23;;;;;;;21.17;13.50;;;6.70;99.90;;;;;;5019877;28;20193;-42
2020/12/07 03:38:49;;;;;;;19.80;14.20;;;6.70;99.90;;;;;;5001422;28;20583;-45
2020/12/07 03:41:14;;;;;;;19.93;13.47;;;6.70;99.90;;;;;;4990043;28;20196;-42
2020/12/07 03:43:40;;;;;;;21.43;13.73;;;6.70;99.90;;;;;;5008337;28;20350;-48
2020/12/07 03:46:06;;;;;;;21.33;13.67;;;6.70;99.90;;;;;;4997323;28;20188;-54
2020/12/07 03:48:31;;;;;;;19.90;12.90;;;6.70;99.90;;;;;;4996196;28;20409;-47
2020/12/07 03:50:56;;;;;;;19.37;12.87;;;6.70;99.90;;;;;;5001035;28;20223;-49
2020/12/07 03:53:22;;;;;;;19.73;12.23;;;6.80;99.90;;;;;;4996111;28;20643;-43
2020/12/07 03:55:47;;;;;;;19.43;12.57;;;6.70;99.90;;;;;;5003898;28;20216;-47
2020/12/07 03:58:13;;;;;;;16.40;11.87;;;6.70;99.90;;;;;;4984052;28;20197;-43
2020/12/07 04:00:38;;;;;;;19.87;12.47;;;6.70;99.90;;;;;;4990958;28;20192;-49
2020/12/07 04:03:07;;;;;;;18.00;12.17;;;6.80;99.90;;;;;;5001059;28;20215;-50
2020/12/07 04:05:37;;;;;;;18.33;12.10;;;6.70;99.90;;;;;;4996518;28;20382;-49
2020/12/07 04:08:03;;;;;;;18.20;12.47;;;6.80;99.90;;;;;;4995481;28;20460;-46
2020/12/07 04:10:29;;;;;;;18.80;12.27;;;6.80;99.90;;;;;;5008962;28;20235;-49
2020/12/07 04:12:54;;;;;;;17.87;12.70;;;6.80;99.90;;;;;;4995217;28;20685;-44
2020/12/07 04:15:19;;;;;;;14.67;11.37;;;6.80;99.90;;;;;;5002786;28;20172;-44
2020/12/07 04:17:45;;;;;;;16.53;11.57;;;6.80;99.90;;;;;;4995360;28;20181;-44
2020/12/07 04:20:10;;;;;;;16.77;12.27;;;6.80;99.90;;;;;;4985567;28;23377;-48
2020/12/07 04:22:36;;;;;;;16.00;11.87;;;6.80;99.90;;;;;;5004126;28;20228;-48
2020/12/07 04:25:02;;;;;;;20.03;12.43;;;6.80;99.90;;;;;;4997734;28;20617;-48
2020/12/07 04:27:28;;;;;;;20.17;13.27;;;6.80;99.90;;;;;;5006030;28;20580;-48
2020/12/07 04:29:53;;;;;;;19.67;12.20;;;6.70;99.90;;;;;;4997752;28;20212;-42
2020/12/07 04:32:19;;;;;;;21.27;12.77;;;6.70;99.90;;;;;;4998469;28;20204;-49
2020/12/07 04:34:44;;;;;;;18.20;12.43;;;6.70;99.90;;;;;;4996811;28;20204;-44
2020/12/07 04:37:09;;;;;;;15.90;12.10;;;6.70;99.90;;;;;;5004386;28;20293;-48
2020/12/07 04:39:35;;;;;;;19.63;12.77;;;6.80;99.90;;;;;;4998975;28;20562;-46
2020/12/07 04:42:02;;;;;;;19.27;12.17;;;6.80;99.90;;;;;;5019362;28;20396;-48
2020/12/07 04:44:28;;;;;;;18.53;11.97;;;6.70;99.90;;;;;;4993966;28;20193;-49
2020/12/07 04:46:54;;;;;;;19.53;11.97;;;6.70;99.90;;;;;;4999765;28;20198;-44
2020/12/07 04:49:21;;;;;;;17.00;11.83;;;6.80;99.90;;;;;;4994961;28;20200;-48
2020/12/07 04:51:49;;;;;;;18.90;11.30;;;6.70;99.90;;;;;;4999145;28;20207;-44
2020/12/07 04:54:15;;;;;;;17.47;11.83;;;6.80;99.90;;;;;;4994353;28;20193;-51
2020/12/07 04:56:42;;;;;;;16.40;11.93;;;6.80;99.90;;;;;;4998515;28;20181;-43
2020/12/07 04:59:08;;;;;;;17.70;11.60;;;6.80;99.90;;;;;;4986420;28;20431;-52
2020/12/07 05:01:34;;;;;;;14.97;11.17;;;6.80;99.90;;;;;;4998688;28;20188;-47
2020/12/07 05:03:59;;;;;;;17.23;11.47;;;6.80;99.90;;;;;;4991695;28;20184;-41
2020/12/07 05:06:28;;;;;;;16.63;12.27;;;6.80;99.90;;;;;;4998418;28;20184;-42
2020/12/07 05:08:54;;;;;;;19.73;12.53;;;6.80;99.90;;;;;;5016435;28;20213;-46
2020/12/07 05:11:19;;;;;;;16.67;11.57;;;6.80;99.90;;;;;;4995397;28;20197;-42
2020/12/07 05:13:50;;;;;;;19.00;12.37;;;6.80;99.90;;;;;;5021489;28;20414;-43
2020/12/07 05:16:15;;;;;;;17.87;11.90;;;6.80;99.90;;;;;;5002262;28;20188;-45
2020/12/07 05:18:41;;;;;;;15.73;10.97;;;6.80;99.90;;;;;;4991594;28;20456;-46
2020/12/07 05:21:07;;;;;;;15.27;11.67;;;6.80;99.90;;;;;;5009779;28;20594;-43
2020/12/07 05:23:41;;;;;;;19.50;11.90;;;6.90;99.90;;;;;;4996093;28;20563;-46
2020/12/07 05:26:09;;;;;;;16.43;11.83;;;6.80;99.90;;;;;;4999378;28;20207;-42
2020/12/07 05:28:42;;;;;;;15.00;11.13;;;6.90;99.90;;;;;;5002491;28;20395;-45
2020/12/07 05:31:13;;;;;;;16.00;11.20;;;6.80;99.90;;;;;;4990981;28;20195;-43
2020/12/07 05:33:38;;;;;;;16.17;10.70;;;6.90;99.90;;;;;;4990596;28;20235;-49
2020/12/07 05:36:04;;;;;;;15.37;11.97;;;6.80;99.90;;;;;;5009767;28;20185;-46
2020/12/07 05:38:33;;;;;;;17.07;11.07;;;6.90;99.90;;;;;;5007769;28;20266;-44
2020/12/07 05:41:04;;;;;;;18.63;12.00;;;6.90;99.90;;;;;;4999784;28;20175;-47
2020/12/07 05:43:30;;;;;;;16.07;10.70;;;6.90;99.90;;;;;;5013331;28;20200;-50
2020/12/07 05:45:59;;;;;;;16.30;11.87;;;6.90;99.90;;;;;;4999373;28;20189;-45
2020/12/07 05:48:30;;;;;;;12.73;10.67;;;6.90;99.90;;;;;;5004255;28;20199;-42
2020/12/07 05:51:01;;;;;;;16.47;11.10;;;6.90;99.90;;;;;;4990995;28;20189;-46
2020/12/07 05:53:26;;;;;;;16.03;10.97;;;6.90;99.90;;;;;;4996903;28;20205;-41
2020/12/07 05:55:53;;;;;;;18.93;11.30;;;6.90;99.90;;;;;;4996161;28;20183;-45
2020/12/07 05:58:21;;;;;;;16.83;11.60;;;6.90;99.90;;;;;;4995675;28;20510;-46
2020/12/07 06:00:47;;;;;;;17.43;10.83;;;6.90;99.90;;;;;;4998033;28;20680;-47
2020/12/07 06:03:17;;;;;;;13.23;9.70;;;6.90;99.90;;;;;;4997824;28;20209;-45
2020/12/07 06:05:44;;;;;;;17.03;11.03;;;6.90;99.90;;;;;;4985753;28;20197;-48
2020/12/07 06:08:15;;;;;;;19.63;11.50;;;6.90;99.90;;;;;;4992540;28;20264;-44
2020/12/07 06:10:47;;;;;;;17.33;11.20;;;6.90;99.90;;;;;;4992332;28;20235;-47
2020/12/07 06:13:15;;;;;;;15.83;10.73;;;7.00;99.90;;;;;;4998114;28;20977;-48
2020/12/07 06:15:44;;;;;;;15.33;10.53;;;6.90;99.90;;;;;;4999005;28;20231;-45
2020/12/07 06:18:43;;;;;;;13.40;10.43;;;6.90;99.90;;;;;;4990370;28;20374;-43
2020/12/07 06:21:18;;;;;;;17.57;10.87;;;7.00;99.90;;;;;;4962283;28;20200;-42
2020/12/07 06:23:47;;;;;;;14.47;10.93;;;7.00;99.90;;;;;;5009949;28;20211;-49
2020/12/07 06:26:14;;;;;;;14.73;11.03;;;7.00;99.90;;;;;;5004009;28;20393;-49
2020/12/07 06:28:42;;;;;;;14.63;10.73;;;7.00;99.90;;;;;;5011987;28;20561;-46
2020/12/07 06:31:08;;;;;;;16.67;10.80;;;7.00;99.90;;;;;;4998705;28;20690;-42
2020/12/07 06:33:44;;;;;;;13.77;10.30;;;7.00;99.90;;;;;;4996971;28;20203;-49
2020/12/07 06:36:23;;;;;;;14.97;9.70;;;7.00;99.90;;;;;;4982218;28;20710;-42
2020/12/07 06:38:49;;;;;;;15.33;10.60;;;7.00;99.90;;;;;;5002181;28;20188;-52
2020/12/07 06:41:27;;;;;;;16.17;10.57;;;7.10;99.90;;;;;;4985159;28;20242;-51
2020/12/07 06:43:57;;;;;;;16.93;10.63;;;7.10;99.90;;;;;;4986377;28;20325;-45
2020/12/07 06:46:52;;;;;;;14.67;10.67;;;7.10;99.90;;;;;;4966851;28;20214;-43
2020/12/07 06:49:18;;;;;;;15.07;10.20;;;7.10;99.90;;;;;;4989168;28;20766;-44
2020/12/07 06:51:46;;;;;;;14.97;10.37;;;7.10;99.90;;;;;;4987831;28;21317;-52
2020/12/07 06:57:21;;;;;;;17.37;9.83;;;7.20;99.90;;;;;;4988060;28;20195;-48
2020/12/07 07:00:15;;;;;;;16.10;10.27;;;7.20;99.90;;;;;;5016587;28;20218;-49
2020/12/07 07:02:45;;;;;;;12.87;9.27;;;7.20;99.90;;;;;;4987160;28;24226;-52
2020/12/07 07:05:12;;;;;;;14.07;10.03;;;7.20;99.90;;;;;;4994784;28;20189;-43
2020/12/07 07:07:38;;;;;;;16.30;10.13;;;7.30;99.90;;;;;;4992884;28;20404;-51
2020/12/07 07:10:05;;;;;;;14.83;9.80;;;7.30;99.90;;;;;;4997845;28;20955;-48
2020/12/07 07:12:30;;;;;;;15.47;9.97;;;7.40;99.90;;;;;;4993233;28;20394;-44
2020/12/07 07:14:57;;;;;;;15.53;9.93;;;7.40;99.90;;;;;;4997238;28;20201;-50
2020/12/07 07:17:27;;;;;;;15.23;10.03;;;7.40;99.90;;;;;;4988267;28;20272;-42
2020/12/07 07:19:53;;;;;;;14.30;9.53;;;7.40;99.90;;;;;;5011666;28;20183;-53
2020/12/07 07:22:19;;;;;;;14.63;10.30;;;7.40;99.90;;;;;;4992086;28;20212;-45
2020/12/07 07:24:51;;;;;;;15.80;9.93;;;7.50;99.90;;;;;;4983268;28;21501;-48
2020/12/07 07:30:01;;;;;;;14.90;10.00;;;7.50;99.90;;;;;;4986626;28;20285;-47
2020/12/07 07:32:27;;;;;;;15.30;9.53;;;7.60;99.90;;;;;;4999250;28;20268;-51
2020/12/07 07:34:52;;;;;;;15.23;9.53;;;7.60;99.90;;;;;;4992662;28;20180;-51
2020/12/07 07:37:18;;;;;;;15.47;10.00;;;7.60;99.90;;;;;;5003092;28;20181;-44
2020/12/07 07:39:46;;;;;;;13.00;9.40;;;7.60;99.90;;;;;;4994048;28;20192;-49
2020/12/07 07:42:14;;;;;;;16.23;9.30;;;7.70;99.90;;;;;;4999894;28;20204;-44
2020/12/07 07:44:44;;;;;;;15.87;9.60;;;7.70;99.90;;;;;;4997562;28;20196;-50
2020/12/07 07:47:18;;;;;;;16.67;10.17;;;7.70;99.90;;;;;;5005625;28;20215;-45
2020/12/07 07:53:03;;;;;;;16.80;10.30;;;7.70;99.90;;;;;;5000625;28;20288;-42
2020/12/07 08:01:54;;;;;;;14.33;10.23;;;7.70;99.90;;;;;;4988909;28;20200;-49
2020/12/07 08:06:14;;;;;;;14.37;9.70;;;7.70;99.90;;;;;;4988356;28;20200;-46
2020/12/07 08:15:32;;;;;;;17.00;10.13;;;7.80;99.90;;;;;;4996902;28;20789;-45
2020/12/07 08:17:59;;;;;;;15.93;9.77;;;7.80;99.90;;;;;;4997004;28;20268;-48
2020/12/07 08:20:28;;;;;;;16.40;10.47;;;7.80;99.90;;;;;;4986877;28;20216;-49
2020/12/07 08:23:12;;;;;;;15.83;10.17;;;7.70;99.90;;;;;;5005836;28;20296;-48
2020/12/07 08:25:49;;;;;;;13.17;9.17;;;7.80;99.90;;;;;;4986754;28;20424;-46
2020/12/07 08:28:39;;;;;;;15.33;9.73;;;7.80;99.90;;;;;;4990605;28;20192;-44
2020/12/07 08:31:17;;;;;;;13.27;9.40;;;7.80;99.90;;;;;;5005959;28;20185;-45
2020/12/07 08:34:01;;;;;;;15.63;10.17;;;7.80;99.90;;;;;;5004170;28;20711;-47
2020/12/07 08:36:31;;;;;;;16.93;9.77;;;7.80;99.90;;;;;;4985536;28;20502;-49
2020/12/07 08:38:58;;;;;;;15.83;10.47;;;7.80;99.90;;;;;;5000627;28;20188;-49
2020/12/07 08:41:26;;;;;;;15.30;9.83;;;7.80;99.90;;;;;;4991405;28;20193;-49
2020/12/07 08:43:55;;;;;;;13.87;9.77;;;7.80;99.90;;;;;;5000897;28;20185;-52
2020/12/07 08:46:23;;;;;;;15.87;10.73;;;7.80;99.90;;;;;;5004013;28;20173;-52
2020/12/07 08:48:49;;;;;;;14.97;10.00;;;7.80;99.90;;;;;;5002395;28;20237;-49
2020/12/07 08:51:18;;;;;;;15.43;9.60;;;7.80;99.90;;;;;;4985784;28;20610;-46
2020/12/07 08:53:43;;;;;;;18.97;11.63;;;7.80;99.90;;;;;;4997827;28;20208;-48
2020/12/07 08:56:10;;;;;;;15.67;9.60;;;7.80;99.90;;;;;;5002216;28;20588;-44
2020/12/07 08:58:37;;;;;;;15.53;10.37;;;7.80;99.90;;;;;;4987825;28;20377;-49
2020/12/07 09:01:04;;;;;;;13.70;10.07;;;7.80;99.90;;;;;;4991296;28;20262;-46
2020/12/07 09:03:30;;;;;;;17.97;11.20;;;7.80;99.90;;;;;;4991684;28;20214;-47
2020/12/07 09:05:55;;;;;;;17.63;10.87;;;7.80;99.90;;;;;;4989118;28;20459;-52
2020/12/07 09:08:21;;;;;;;16.53;11.27;;;7.80;99.90;;;;;;5003818;28;20211;-46
2020/12/07 09:10:46;;;;;;;14.13;9.80;;;7.80;99.90;;;;;;4996544;28;20299;-46
2020/12/07 09:13:12;;;;;;;15.03;9.80;;;7.80;99.90;;;;;;4995316;28;20201;-48
2020/12/07 09:15:37;;;;;;;13.23;9.20;;;7.80;99.90;;;;;;4997051;28;20614;-48
2020/12/07 09:18:03;;;;;;;17.00;10.93;;;7.80;99.90;;;;;;5007884;28;20219;-51
2020/12/07 09:20:28;;;;;;;12.80;9.60;;;7.80;99.90;;;;;;5007002;28;20184;-51
2020/12/07 09:22:53;;;;;;;15.87;9.93;;;7.80;99.90;;;;;;4992383;28;20437;-47
2020/12/07 09:25:19;;;;;;;15.27;10.13;;;7.70;99.90;;;;;;5004129;28;20193;-46
2020/12/07 09:27:44;;;;;;;15.03;10.17;;;7.80;99.90;;;;;;4998472;28;20276;-44
2020/12/07 09:30:10;;;;;;;13.20;9.63;;;7.80;99.90;;;;;;5001724;28;20224;-50
2020/12/07 09:32:36;;;;;;;15.67;10.43;;;7.70;99.90;;;;;;5003319;28;20219;-43
2020/12/07 09:35:02;;;;;;;16.37;10.87;;;7.80;99.90;;;;;;4996545;28;20900;-48
2020/12/07 09:37:28;;;;;;;19.10;12.30;;;7.80;99.90;;;;;;4994600;28;20185;-48
2020/12/07 09:39:53;;;;;;;15.77;10.17;;;7.80;99.90;;;;;;4995429;28;20193;-48
2020/12/07 09:42:19;;;;;;;16.50;9.77;;;7.80;99.90;;;;;;5009798;28;20195;-48
2020/12/07 09:44:45;;;;;;;16.00;9.43;;;7.80;99.90;;;;;;4988692;28;20546;-44
2020/12/07 09:47:10;;;;;;;13.17;9.90;;;7.80;99.90;;;;;;5005330;28;20226;-47
2020/12/07 09:49:36;;;;;;;13.87;10.03;;;7.80;99.90;;;;;;5013101;28;20676;-46
2020/12/07 09:52:01;;;;;;;13.47;10.07;;;7.80;99.90;;;;;;4987413;28;20221;-51
2020/12/07 09:54:27;;;;;;;14.57;9.30;;;7.80;99.90;;;;;;5004302;28;20268;-51
2020/12/07 09:56:52;;;;;;;14.50;9.53;;;7.80;99.90;;;;;;4998470;28;20181;-45
2020/12/07 09:59:17;;;;;;;18.23;10.67;;;7.70;99.90;;;;;;4996262;28;20196;-49
2020/12/07 10:01:43;;;;;;;13.20;9.23;;;7.80;99.90;;;;;;5004829;28;20228;-46
2020/12/07 10:04:08;;;;;;;14.50;9.80;;;7.70;99.90;;;;;;5008808;28;20192;-47
2020/12/07 10:06:34;;;;;;;23.40;11.60;;;7.70;99.90;;;;;;5002356;28;20187;-46
2020/12/07 10:08:59;;;;;;;17.23;11.37;;;7.70;99.90;;;;;;5007734;28;20222;-47
2020/12/07 10:11:25;;;;;;;15.47;10.63;;;7.70;99.90;;;;;;5006682;28;20203;-49
2020/12/07 10:13:50;;;;;;;18.40;12.30;;;7.60;99.90;;;;;;4980050;28;20189;-47
2020/12/07 10:16:16;;;;;;;20.90;13.33;;;7.60;99.90;;;;;;4998459;28;20169;-47
2020/12/07 10:18:41;;;;;;;19.13;12.93;;;7.60;99.90;;;;;;4989845;28;20212;-48
2020/12/07 10:21:07;;;;;;;19.83;13.13;;;7.50;99.90;;;;;;4995110;28;20200;-47
2020/12/07 10:23:33;;;;;;;19.87;13.43;;;7.50;99.90;;;;;;4987606;28;20799;-48
2020/12/07 10:25:59;;;;;;;18.23;12.87;;;7.50;99.90;;;;;;4998262;28;20165;-48
2020/12/07 10:28:24;;;;;;;17.23;13.37;;;7.50;99.90;;;;;;4996748;28;20249;-42
2020/12/07 10:30:49;;;;;;;18.83;13.30;;;7.50;99.90;;;;;;5001561;28;20224;-48
2020/12/07 10:33:15;;;;;;;17.70;12.10;;;7.50;99.90;;;;;;4996868;28;20212;-47
2020/12/07 10:35:41;;;;;;;18.53;13.27;;;7.50;99.90;;;;;;4995035;28;20172;-47
2020/12/07 10:38:06;;;;;;;20.33;13.27;;;7.50;99.90;;;;;;4993723;28;20677;-47
2020/12/07 10:40:32;;;;;;;19.23;14.20;;;7.50;99.90;;;;;;4987350;28;20191;-48
2020/12/07 10:42:57;;;;;;;19.43;13.37;;;7.40;99.90;;;;;;4998882;28;20289;-47
2020/12/07 10:45:23;;;;;;;19.87;12.90;;;7.40;99.90;;;;;;4995491;28;20718;-43
2020/12/07 10:47:52;;;;;;;17.97;12.53;;;7.40;99.90;;;;;;4996315;28;20203;-48
2020/12/07 10:50:18;;;;;;;17.90;13.33;;;7.40;99.90;;;;;;5000277;28;20212;-43
2020/12/07 10:52:44;;;;;;;17.80;13.40;;;7.30;99.90;;;;;;4994263;28;20200;-46
2020/12/07 10:55:09;;;;;;;17.07;13.00;;;7.30;99.90;;;;;;5006142;28;20727;-46
2020/12/07 10:57:35;;;;;;;16.47;12.87;;;7.30;99.90;;;;;;4988179;28;20692;-49
2020/12/07 11:00:01;;;;;;;19.23;13.00;;;7.30;99.90;;;;;;5001921;28;20212;-50
2020/12/07 11:02:27;;;;;;;20.57;13.20;;;7.20;99.90;;;;;;4980651;28;20604;-50
2020/12/07 11:04:52;;;;;;;21.87;14.30;;;7.20;99.90;;;;;;4997732;28;20303;-54
2020/12/07 11:07:19;;;;;;;18.50;14.10;;;7.20;99.90;;;;;;5001130;28;20663;-47
2020/12/07 11:09:44;;;;;;;21.20;14.30;;;7.10;99.90;;;;;;5018366;28;20204;-53
2020/12/07 11:12:14;;;;;;;20.47;14.13;;;7.20;99.90;;;;;;4996268;28;20248;-46
2020/12/07 11:14:39;;;;;;;20.83;14.27;;;7.20;99.90;;;;;;4999771;28;20179;-50
2020/12/07 11:17:05;;;;;;;20.17;14.13;;;7.20;99.90;;;;;;5001654;28;20180;-51
2020/12/07 11:19:31;;;;;;;18.27;13.77;;;7.10;99.90;;;;;;4991045;28;20176;-49
2020/12/07 11:21:56;;;;;;;19.00;13.53;;;7.10;99.90;;;;;;5005747;28;20212;-48
2020/12/07 11:24:22;;;;;;;18.63;13.10;;;7.10;99.90;;;;;;5012260;28;20199;-46
2020/12/07 11:26:47;;;;;;;24.20;14.17;;;7.10;99.90;;;;;;4988010;28;20838;-46
2020/12/07 11:29:13;;;;;;;20.13;14.87;;;7.00;99.90;;;;;;4996802;28;20582;-45
2020/12/07 11:31:38;;;;;;;18.03;13.03;;;7.00;99.90;;;;;;5005706;28;20177;-48
2020/12/07 11:34:04;;;;;;;22.13;14.03;;;6.90;99.90;;;;;;5000312;28;20680;-51
2020/12/07 11:36:29;;;;;;;15.73;12.23;;;6.80;99.90;;;;;;4994166;28;20260;-49
2020/12/07 11:44:10;;;;;;;20.43;12.57;;;6.70;99.90;;;;;;5006977;28;20553;-52
2020/12/07 11:46:49;;;;;;;18.13;12.57;;;6.60;99.90;;;;;;4998144;28;20279;-49
2020/12/07 11:49:14;;;;;;;18.63;12.40;;;6.60;99.90;;;;;;5005432;28;20213;-45
2020/12/07 11:51:40;;;;;;;21.47;11.70;;;6.50;99.90;;;;;;5003012;28;20180;-51
2020/12/07 11:54:06;;;;;;;19.30;12.67;;;6.50;99.90;;;;;;5006143;28;20548;-46
2020/12/07 11:56:34;;;;;;;21.63;12.60;;;6.40;99.90;;;;;;4998853;28;20778;-45
2020/12/07 11:59:00;;;;;;;19.00;13.33;;;6.40;99.90;;;;;;5001125;28;20189;-46
2020/12/07 12:01:26;;;;;;;16.67;11.83;;;6.40;99.90;;;;;;4999039;28;20286;-46
2020/12/07 12:03:52;;;;;;;21.27;12.83;;;6.40;99.90;;;;;;4982329;28;20197;-48
2020/12/07 12:06:25;;;;;;;20.20;12.83;;;6.40;99.90;;;;;;4988842;28;20199;-48
2020/12/07 12:08:52;;;;;;;22.70;14.03;;;6.30;99.90;;;;;;5000636;28;20257;-49
2020/12/07 12:11:18;;;;;;;21.90;13.77;;;6.30;99.90;;;;;;4995620;28;20193;-45
2020/12/07 12:13:44;;;;;;;24.77;14.40;;;6.30;99.90;;;;;;4984409;28;20279;-45
2020/12/07 12:16:10;;;;;;;22.73;14.17;;;6.30;99.90;;;;;;5010099;28;20189;-48
2020/12/07 12:18:37;;;;;;;21.43;13.57;;;6.20;99.90;;;;;;4997261;28;20527;-43
2020/12/07 12:21:04;;;;;;;19.80;13.50;;;6.20;99.90;;;;;;4994330;28;20181;-43
2020/12/07 12:23:29;;;;;;;19.43;12.33;;;6.20;99.90;;;;;;4996865;28;21030;-44
2020/12/07 12:25:55;;;;;;;22.00;13.60;;;6.20;99.90;;;;;;5004649;28;20267;-46
2020/12/07 12:28:20;;;;;;;21.83;13.40;;;6.20;99.90;;;;;;4984129;28;20271;-47
2020/12/07 12:30:46;;;;;;;25.40;14.13;;;6.20;99.90;;;;;;5001412;28;20299;-44
2020/12/07 12:33:11;;;;;;;21.60;13.80;;;6.30;99.90;;;;;;5005280;28;20204;-44
2020/12/07 12:35:37;;;;;;;21.73;14.17;;;6.30;99.90;;;;;;5007601;28;20180;-45
2020/12/07 12:38:02;;;;;;;23.73;12.73;;;6.20;99.90;;;;;;5011410;28;20208;-44
2020/12/07 12:40:28;;;;;;;20.77;12.53;;;6.20;99.90;;;;;;4992108;28;20373;-43
2020/12/07 12:42:53;;;;;;;19.43;13.03;;;6.20;99.90;;;;;;4994937;28;20617;-44
2020/12/07 12:45:19;;;;;;;19.53;13.30;;;6.10;99.90;;;;;;4988272;28;20197;-44
2020/12/07 12:47:44;;;;;;;19.63;11.20;;;6.10;99.90;;;;;;5009559;28;20452;-43
2020/12/07 12:50:10;;;;;;;17.80;11.00;;;6.20;99.90;;;;;;4991042;28;20304;-49
2020/12/07 12:52:38;;;;;;;16.73;11.17;;;6.10;99.90;;;;;;4989439;28;20839;-47
2020/12/07 12:55:03;;;;;;;19.73;12.13;;;6.10;99.90;;;;;;4991482;28;20259;-48
2020/12/07 12:57:29;;;;;;;18.00;11.73;;;6.10;99.90;;;;;;4992445;28;20844;-44
2020/12/07 12:59:54;;;;;;;18.33;12.27;;;6.10;99.90;;;;;;4995248;28;20193;-45
2020/12/07 13:02:20;;;;;;;18.60;11.77;;;6.10;99.90;;;;;;5007067;28;20204;-48
2020/12/07 13:04:45;;;;;;;18.77;12.43;;;6.10;99.90;;;;;;5001216;28;20200;-47
2020/12/07 13:07:11;;;;;;;14.93;11.17;;;6.10;99.90;;;;;;4992380;28;20196;-47